Main page
METAR-TAF:

METAR-TAF

Airports :

Pärnu Airport

Pärnu, Estonia

latitude: 58-25-09N, longitude: 024-28-22E, elevation: 14 m

Current weather observation

The report was made 7 hours and 29 minutes ago, at 12:50 UTC
Wind 7 kt from the South/Southwest
Temperature 11°C
Humidity 76%
Pressure 1021 hPa
Visibility 10 km or more
no clouds below 1500 m and no cumulonimbus

METAR: EEPU 201250Z 21007KT CAVOK 11/07 Q1021

Time: 23:19 (20:19 UTC)


TAF: missing

Weather observations and forecasts of more than 4000 airports (METAR and TAF reports).

The available stations are represented by yellow and red dots on the map.

Hover mouse over dot to see the name of the station.

Then click to see weather observations and forecasts.

To change the map : click on the green buttons with a black cross to zoom in, on the green button with a dash to zoom out, or on the green arrows for adjacent maps.


METAR-TAF: